sensor_id;sensor_type;location;lat;lon;timestamp;temperature;humidity
24772;DHT22;12870;52.274;9.754;2023-02-10T00:01:07;4.10;99.90
24772;DHT22;12870;52.274;9.754;2023-02-10T00:03:34;4.10;99.90
24772;DHT22;12870;52.274;9.754;2023-02-10T00:06:00;4.10;99.90
24772;DHT22;12870;52.274;9.754;2023-02-10T00:08:26;4.10;99.90
24772;DHT22;12870;52.274;9.754;2023-02-10T00:10:59;4.10;99.90
24772;DHT22;12870;52.274;9.754;2023-02-10T00:13:26;4.00;99.90
24772;DHT22;12870;52.274;9.754;2023-02-10T00:15:52;4.00;99.90
24772;DHT22;12870;52.274;9.754;2023-02-10T00:18:18;4.00;99.90
24772;DHT22;12870;52.274;9.754;2023-02-10T00:20:44;4.00;99.90
24772;DHT22;12870;52.274;9.754;2023-02-10T00:23:09;4.00;99.90
24772;DHT22;12870;52.274;9.754;2023-02-10T00:25:35;4.00;99.90
24772;DHT22;12870;52.274;9.754;2023-02-10T00:28:01;3.90;99.90
24772;DHT22;12870;52.274;9.754;2023-02-10T00:30:27;3.90;99.90
24772;DHT22;12870;52.274;9.754;2023-02-10T00:32:53;3.90;99.90
24772;DHT22;12870;52.274;9.754;2023-02-10T00:35:18;3.90;99.90
24772;DHT22;12870;52.274;9.754;2023-02-10T00:37:44;3.80;99.90
24772;DHT22;12870;52.274;9.754;2023-02-10T00:40:10;3.70;99.90
24772;DHT22;12870;52.274;9.754;2023-02-10T00:42:35;3.70;99.90
24772;DHT22;12870;52.274;9.754;2023-02-10T00:45:01;3.70;99.90
24772;DHT22;12870;52.274;9.754;2023-02-10T00:47:27;3.70;99.90
24772;DHT22;12870;52.274;9.754;2023-02-10T00:49:53;3.70;99.90
24772;DHT22;12870;52.274;9.754;2023-02-10T00:52:19;3.70;99.90
24772;DHT22;12870;52.274;9.754;2023-02-10T00:54:44;3.80;99.90
24772;DHT22;12870;52.274;9.754;2023-02-10T00:57:10;3.80;99.90
24772;DHT22;12870;52.274;9.754;2023-02-10T00:59:36;3.70;99.90
24772;DHT22;12870;52.274;9.754;2023-02-10T01:02:01;3.70;99.90
24772;DHT22;12870;52.274;9.754;2023-02-10T01:04:27;3.70;99.90
24772;DHT22;12870;52.274;9.754;2023-02-10T01:06:53;3.70;99.90
24772;DHT22;12870;52.274;9.754;2023-02-10T01:09:18;3.70;99.90
24772;DHT22;12870;52.274;9.754;2023-02-10T01:11:44;3.70;99.90
24772;DHT22;12870;52.274;9.754;2023-02-10T01:14:10;3.60;99.90
24772;DHT22;12870;52.274;9.754;2023-02-10T01:16:36;3.70;99.90
24772;DHT22;12870;52.274;9.754;2023-02-10T01:19:02;3.70;99.90
24772;DHT22;12870;52.274;9.754;2023-02-10T01:21:29;3.60;99.90
24772;DHT22;12870;52.274;9.754;2023-02-10T01:23:55;3.70;99.90
24772;DHT22;12870;52.274;9.754;2023-02-10T01:26:21;3.70;99.90
24772;DHT22;12870;52.274;9.754;2023-02-10T01:28:47;3.60;99.90
24772;DHT22;12870;52.274;9.754;2023-02-10T01:31:16;3.70;99.90
24772;DHT22;12870;52.274;9.754;2023-02-10T01:33:42;3.70;99.90
24772;DHT22;12870;52.274;9.754;2023-02-10T01:36:14;3.60;99.90
24772;DHT22;12870;52.274;9.754;2023-02-10T01:38:40;3.70;99.90
24772;DHT22;12870;52.274;9.754;2023-02-10T01:41:07;3.70;99.90
24772;DHT22;12870;52.274;9.754;2023-02-10T01:43:56;3.70;99.90
24772;DHT22;12870;52.274;9.754;2023-02-10T01:46:22;3.80;99.90
24772;DHT22;12870;52.274;9.754;2023-02-10T01:48:48;3.80;99.90
24772;DHT22;12870;52.274;9.754;2023-02-10T01:51:14;3.80;99.90
24772;DHT22;12870;52.274;9.754;2023-02-10T01:53:41;3.70;99.90
24772;DHT22;12870;52.274;9.754;2023-02-10T01:56:09;3.80;99.90
24772;DHT22;12870;52.274;9.754;2023-02-10T01:58:35;3.80;99.90
24772;DHT22;12870;52.274;9.754;2023-02-10T02:01:01;3.70;99.90
24772;DHT22;12870;52.274;9.754;2023-02-10T02:03:27;3.70;99.90
24772;DHT22;12870;52.274;9.754;2023-02-10T02:05:52;3.70;99.90
24772;DHT22;12870;52.274;9.754;2023-02-10T02:08:27;3.70;99.90
24772;DHT22;12870;52.274;9.754;2023-02-10T02:11:11;3.70;99.90
24772;DHT22;12870;52.274;9.754;2023-02-10T02:30:44;3.50;99.90
24772;DHT22;12870;52.274;9.754;2023-02-10T02:35:54;3.50;99.90
24772;DHT22;12870;52.274;9.754;2023-02-10T02:38:21;3.50;99.90
24772;DHT22;12870;52.274;9.754;2023-02-10T02:40:46;3.50;99.90
24772;DHT22;12870;52.274;9.754;2023-02-10T02:43:12;3.40;99.90
24772;DHT22;12870;52.274;9.754;2023-02-10T02:45:56;3.40;99.90
24772;DHT22;12870;52.274;9.754;2023-02-10T02:51:42;3.50;99.90
24772;DHT22;12870;52.274;9.754;2023-02-10T02:57:22;3.50;99.90
24772;DHT22;12870;52.274;9.754;2023-02-10T03:00:15;3.50;99.90
24772;DHT22;12870;52.274;9.754;2023-02-10T03:02:42;3.50;99.90
24772;DHT22;12870;52.274;9.754;2023-02-10T03:05:11;3.40;99.90
24772;DHT22;12870;52.274;9.754;2023-02-10T03:07:41;3.50;99.90
24772;DHT22;12870;52.274;9.754;2023-02-10T03:10:07;3.40;99.90
24772;DHT22;12870;52.274;9.754;2023-02-10T03:12:33;3.40;99.90
24772;DHT22;12870;52.274;9.754;2023-02-10T03:14:59;3.40;99.90
24772;DHT22;12870;52.274;9.754;2023-02-10T03:17:24;3.40;99.90
24772;DHT22;12870;52.274;9.754;2023-02-10T03:19:50;3.40;99.90
24772;DHT22;12870;52.274;9.754;2023-02-10T03:22:16;3.40;99.90
24772;DHT22;12870;52.274;9.754;2023-02-10T03:24:41;3.50;99.90
24772;DHT22;12870;52.274;9.754;2023-02-10T03:27:07;3.50;99.90
24772;DHT22;12870;52.274;9.754;2023-02-10T03:29:33;3.50;99.90
24772;DHT22;12870;52.274;9.754;2023-02-10T03:31:58;3.50;99.90
24772;DHT22;12870;52.274;9.754;2023-02-10T03:34:27;3.50;99.90
24772;DHT22;12870;52.274;9.754;2023-02-10T03:36:53;3.50;99.90
24772;DHT22;12870;52.274;9.754;2023-02-10T03:39:19;3.40;99.90
24772;DHT22;12870;52.274;9.754;2023-02-10T03:41:44;3.40;99.90
24772;DHT22;12870;52.274;9.754;2023-02-10T03:44:10;3.40;99.90
24772;DHT22;12870;52.274;9.754;2023-02-10T03:46:36;3.40;99.90
24772;DHT22;12870;52.274;9.754;2023-02-10T03:49:03;3.40;99.90
24772;DHT22;12870;52.274;9.754;2023-02-10T03:51:29;3.40;99.90
24772;DHT22;12870;52.274;9.754;2023-02-10T03:53:55;3.40;99.90
24772;DHT22;12870;52.274;9.754;2023-02-10T03:56:20;3.40;99.90
24772;DHT22;12870;52.274;9.754;2023-02-10T03:58:46;3.40;99.90
24772;DHT22;12870;52.274;9.754;2023-02-10T04:01:14;3.40;99.90
24772;DHT22;12870;52.274;9.754;2023-02-10T04:03:40;3.30;99.90
24772;DHT22;12870;52.274;9.754;2023-02-10T04:06:06;3.30;99.90
24772;DHT22;12870;52.274;9.754;2023-02-10T04:08:32;3.30;99.90
24772;DHT22;12870;52.274;9.754;2023-02-10T04:10:58;3.30;99.90
24772;DHT22;12870;52.274;9.754;2023-02-10T04:13:24;3.30;99.90
24772;DHT22;12870;52.274;9.754;2023-02-10T04:16:03;3.30;99.90
24772;DHT22;12870;52.274;9.754;2023-02-10T04:18:29;3.40;99.90
24772;DHT22;12870;52.274;9.754;2023-02-10T04:20:54;3.30;99.90
24772;DHT22;12870;52.274;9.754;2023-02-10T04:23:21;3.30;99.90
24772;DHT22;12870;52.274;9.754;2023-02-10T04:25:46;3.30;99.90
24772;DHT22;12870;52.274;9.754;2023-02-10T04:28:12;3.30;99.90
24772;DHT22;12870;52.274;9.754;2023-02-10T04:30:38;3.30;99.90
24772;DHT22;12870;52.274;9.754;2023-02-10T04:33:03;3.30;99.90
24772;DHT22;12870;52.274;9.754;2023-02-10T04:35:29;3.30;99.90
24772;DHT22;12870;52.274;9.754;2023-02-10T04:37:55;3.30;99.90
24772;DHT22;12870;52.274;9.754;2023-02-10T04:40:21;3.30;99.90
24772;DHT22;12870;52.274;9.754;2023-02-10T04:42:47;3.20;99.90
24772;DHT22;12870;52.274;9.754;2023-02-10T04:45:13;3.20;99.90
24772;DHT22;12870;52.274;9.754;2023-02-10T04:47:38;3.20;99.90
24772;DHT22;12870;52.274;9.754;2023-02-10T04:50:05;3.10;99.90
24772;DHT22;12870;52.274;9.754;2023-02-10T04:52:31;3.20;99.90
24772;DHT22;12870;52.274;9.754;2023-02-10T04:54:56;3.10;99.90
24772;DHT22;12870;52.274;9.754;2023-02-10T04:57:22;3.10;99.90
24772;DHT22;12870;52.274;9.754;2023-02-10T04:59:47;3.10;99.90
24772;DHT22;12870;52.274;9.754;2023-02-10T05:02:13;3.10;99.90
24772;DHT22;12870;52.274;9.754;2023-02-10T05:04:39;3.10;99.90
24772;DHT22;12870;52.274;9.754;2023-02-10T05:07:05;3.10;99.90
24772;DHT22;12870;52.274;9.754;2023-02-10T05:09:30;3.10;99.90
24772;DHT22;12870;52.274;9.754;2023-02-10T05:11:56;3.10;99.90
24772;DHT22;12870;52.274;9.754;2023-02-10T05:14:22;3.10;99.90
24772;DHT22;12870;52.274;9.754;2023-02-10T05:16:48;3.00;99.90
24772;DHT22;12870;52.274;9.754;2023-02-10T05:19:13;3.10;99.90
24772;DHT22;12870;52.274;9.754;2023-02-10T05:21:39;3.20;99.90
24772;DHT22;12870;52.274;9.754;2023-02-10T05:24:05;3.20;99.90
24772;DHT22;12870;52.274;9.754;2023-02-10T05:26:30;3.20;99.90
24772;DHT22;12870;52.274;9.754;2023-02-10T05:28:56;3.20;99.90
24772;DHT22;12870;52.274;9.754;2023-02-10T05:31:22;3.20;99.90
24772;DHT22;12870;52.274;9.754;2023-02-10T05:33:47;3.20;99.90
24772;DHT22;12870;52.274;9.754;2023-02-10T05:36:13;3.20;99.90
24772;DHT22;12870;52.274;9.754;2023-02-10T05:38:39;3.30;99.90
24772;DHT22;12870;52.274;9.754;2023-02-10T05:41:24;3.30;99.90
24772;DHT22;12870;52.274;9.754;2023-02-10T05:43:50;3.30;99.90
24772;DHT22;12870;52.274;9.754;2023-02-10T05:46:15;3.30;99.90
24772;DHT22;12870;52.274;9.754;2023-02-10T05:48:41;3.30;99.90
24772;DHT22;12870;52.274;9.754;2023-02-10T05:51:07;3.30;99.90
24772;DHT22;12870;52.274;9.754;2023-02-10T05:53:32;3.30;99.90
24772;DHT22;12870;52.274;9.754;2023-02-10T05:55:58;3.40;99.90
24772;DHT22;12870;52.274;9.754;2023-02-10T05:58:24;3.40;99.90
24772;DHT22;12870;52.274;9.754;2023-02-10T06:00:49;3.40;99.90
24772;DHT22;12870;52.274;9.754;2023-02-10T06:03:15;3.40;99.90
24772;DHT22;12870;52.274;9.754;2023-02-10T06:05:40;3.40;99.90
24772;DHT22;12870;52.274;9.754;2023-02-10T06:08:08;3.30;99.90
24772;DHT22;12870;52.274;9.754;2023-02-10T06:10:34;3.30;99.90
24772;DHT22;12870;52.274;9.754;2023-02-10T06:13:00;3.30;99.90
24772;DHT22;12870;52.274;9.754;2023-02-10T06:15:25;3.30;99.90
24772;DHT22;12870;52.274;9.754;2023-02-10T06:17:51;3.20;99.90
24772;DHT22;12870;52.274;9.754;2023-02-10T06:20:17;3.20;99.90
24772;DHT22;12870;52.274;9.754;2023-02-10T06:22:42;3.10;99.90
24772;DHT22;12870;52.274;9.754;2023-02-10T06:25:08;3.10;99.90
24772;DHT22;12870;52.274;9.754;2023-02-10T06:27:33;3.10;99.90
24772;DHT22;12870;52.274;9.754;2023-02-10T06:29:59;3.10;99.90
24772;DHT22;12870;52.274;9.754;2023-02-10T06:32:25;3.00;99.90
24772;DHT22;12870;52.274;9.754;2023-02-10T06:34:50;3.00;99.90
24772;DHT22;12870;52.274;9.754;2023-02-10T06:37:16;3.00;99.90
24772;DHT22;12870;52.274;9.754;2023-02-10T06:39:42;2.90;99.90
24772;DHT22;12870;52.274;9.754;2023-02-10T06:42:07;2.90;99.90
24772;DHT22;12870;52.274;9.754;2023-02-10T06:44:33;2.90;99.90
24772;DHT22;12870;52.274;9.754;2023-02-10T06:46:59;2.90;99.90
24772;DHT22;12870;52.274;9.754;2023-02-10T06:49:24;2.90;99.90
24772;DHT22;12870;52.274;9.754;2023-02-10T06:51:50;2.90;99.90
24772;DHT22;12870;52.274;9.754;2023-02-10T06:54:16;2.80;99.90
24772;DHT22;12870;52.274;9.754;2023-02-10T06:56:42;2.80;99.90
24772;DHT22;12870;52.274;9.754;2023-02-10T06:59:11;2.80;99.90
24772;DHT22;12870;52.274;9.754;2023-02-10T07:01:37;2.80;99.90
24772;DHT22;12870;52.274;9.754;2023-02-10T07:04:03;2.80;99.90
24772;DHT22;12870;52.274;9.754;2023-02-10T07:06:28;2.90;99.90
24772;DHT22;12870;52.274;9.754;2023-02-10T07:08:54;2.90;99.90
24772;DHT22;12870;52.274;9.754;2023-02-10T07:11:20;2.90;99.90
24772;DHT22;12870;52.274;9.754;2023-02-10T07:13:45;3.00;99.90
24772;DHT22;12870;52.274;9.754;2023-02-10T07:16:11;3.00;99.90
24772;DHT22;12870;52.274;9.754;2023-02-10T07:18:40;3.00;99.90
24772;DHT22;12870;52.274;9.754;2023-02-10T07:21:06;3.00;99.90
24772;DHT22;12870;52.274;9.754;2023-02-10T07:23:31;3.00;99.90
24772;DHT22;12870;52.274;9.754;2023-02-10T07:25:57;3.10;99.90
24772;DHT22;12870;52.274;9.754;2023-02-10T07:28:23;3.10;99.90
24772;DHT22;12870;52.274;9.754;2023-02-10T07:30:48;3.10;99.90
24772;DHT22;12870;52.274;9.754;2023-02-10T07:33:14;3.20;99.90
24772;DHT22;12870;52.274;9.754;2023-02-10T07:35:40;3.20;99.90
24772;DHT22;12870;52.274;9.754;2023-02-10T07:38:05;3.30;99.90
24772;DHT22;12870;52.274;9.754;2023-02-10T07:40:31;3.30;99.90
24772;DHT22;12870;52.274;9.754;2023-02-10T07:42:56;3.40;99.90
24772;DHT22;12870;52.274;9.754;2023-02-10T07:45:22;3.40;99.90
24772;DHT22;12870;52.274;9.754;2023-02-10T07:47:48;3.40;99.90
24772;DHT22;12870;52.274;9.754;2023-02-10T07:50:14;3.40;99.90
24772;DHT22;12870;52.274;9.754;2023-02-10T07:52:39;3.40;99.90
24772;DHT22;12870;52.274;9.754;2023-02-10T07:55:07;3.40;99.90
24772;DHT22;12870;52.274;9.754;2023-02-10T07:57:33;3.50;99.90
24772;DHT22;12870;52.274;9.754;2023-02-10T07:59:58;3.40;99.90
24772;DHT22;12870;52.274;9.754;2023-02-10T08:02:24;3.40;99.90
24772;DHT22;12870;52.274;9.754;2023-02-10T08:04:50;3.50;99.90
24772;DHT22;12870;52.274;9.754;2023-02-10T08:07:19;3.50;99.90
24772;DHT22;12870;52.274;9.754;2023-02-10T08:09:45;3.50;99.90
24772;DHT22;12870;52.274;9.754;2023-02-10T08:12:10;3.40;99.90
24772;DHT22;12870;52.274;9.754;2023-02-10T08:14:36;3.50;99.90
24772;DHT22;12870;52.274;9.754;2023-02-10T08:17:02;3.50;99.90
24772;DHT22;12870;52.274;9.754;2023-02-10T08:19:28;3.50;99.90
24772;DHT22;12870;52.274;9.754;2023-02-10T08:21:53;3.40;99.90
24772;DHT22;12870;52.274;9.754;2023-02-10T08:24:19;3.50;99.90
24772;DHT22;12870;52.274;9.754;2023-02-10T08:26:45;3.50;99.90
24772;DHT22;12870;52.274;9.754;2023-02-10T08:29:10;3.60;99.90
24772;DHT22;12870;52.274;9.754;2023-02-10T08:31:37;3.60;99.90
24772;DHT22;12870;52.274;9.754;2023-02-10T08:34:03;3.70;99.90
24772;DHT22;12870;52.274;9.754;2023-02-10T08:36:29;3.70;99.90
24772;DHT22;12870;52.274;9.754;2023-02-10T08:38:55;3.80;99.90
24772;DHT22;12870;52.274;9.754;2023-02-10T08:41:21;3.90;99.90
24772;DHT22;12870;52.274;9.754;2023-02-10T08:43:46;3.90;99.90
24772;DHT22;12870;52.274;9.754;2023-02-10T08:46:12;3.90;99.90
24772;DHT22;12870;52.274;9.754;2023-02-10T08:48:38;4.00;99.90
24772;DHT22;12870;52.274;9.754;2023-02-10T08:51:09;4.00;99.90
24772;DHT22;12870;52.274;9.754;2023-02-10T08:53:35;4.10;99.90
24772;DHT22;12870;52.274;9.754;2023-02-10T08:56:06;4.20;99.90
24772;DHT22;12870;52.274;9.754;2023-02-10T08:58:32;4.30;99.90
24772;DHT22;12870;52.274;9.754;2023-02-10T09:00:58;4.30;99.90
24772;DHT22;12870;52.274;9.754;2023-02-10T09:03:23;4.40;99.90
24772;DHT22;12870;52.274;9.754;2023-02-10T09:05:49;4.50;99.90
24772;DHT22;12870;52.274;9.754;2023-02-10T09:08:16;4.60;99.90
24772;DHT22;12870;52.274;9.754;2023-02-10T09:10:43;4.70;99.90
24772;DHT22;12870;52.274;9.754;2023-02-10T09:13:09;4.70;99.90
24772;DHT22;12870;52.274;9.754;2023-02-10T09:15:39;4.80;99.90
24772;DHT22;12870;52.274;9.754;2023-02-10T09:18:05;4.80;99.90
24772;DHT22;12870;52.274;9.754;2023-02-10T09:20:31;4.90;99.90
24772;DHT22;12870;52.274;9.754;2023-02-10T09:22:57;4.90;99.90
24772;DHT22;12870;52.274;9.754;2023-02-10T09:25:22;4.90;99.90
24772;DHT22;12870;52.274;9.754;2023-02-10T09:27:48;4.90;99.90
24772;DHT22;12870;52.274;9.754;2023-02-10T09:30:14;4.80;99.90
24772;DHT22;12870;52.274;9.754;2023-02-10T09:32:39;4.70;99.90
24772;DHT22;12870;52.274;9.754;2023-02-10T09:35:05;4.70;99.90
24772;DHT22;12870;52.274;9.754;2023-02-10T09:37:31;4.70;99.90
24772;DHT22;12870;52.274;9.754;2023-02-10T09:39:56;4.60;99.90
24772;DHT22;12870;52.274;9.754;2023-02-10T09:42:27;4.60;99.90
24772;DHT22;12870;52.274;9.754;2023-02-10T09:45:15;4.50;99.90
24772;DHT22;12870;52.274;9.754;2023-02-10T09:53:17;4.40;99.90
24772;DHT22;12870;52.274;9.754;2023-02-10T09:55:52;4.60;99.90
24772;DHT22;12870;52.274;9.754;2023-02-10T09:58:31;4.70;99.90
24772;DHT22;12870;52.274;9.754;2023-02-10T10:01:26;4.90;99.90
24772;DHT22;12870;52.274;9.754;2023-02-10T10:06:20;5.10;99.90
24772;DHT22;12870;52.274;9.754;2023-02-10T10:13:59;5.10;99.90
24772;DHT22;12870;52.274;9.754;2023-02-10T10:17:07;5.10;99.90
24772;DHT22;12870;52.274;9.754;2023-02-10T10:30:06;5.30;99.90
24772;DHT22;12870;52.274;9.754;2023-02-10T10:32:44;5.50;99.90
24772;DHT22;12870;52.274;9.754;2023-02-10T10:35:38;5.40;99.90
24772;DHT22;12870;52.274;9.754;2023-02-10T10:38:23;5.70;99.90
24772;DHT22;12870;52.274;9.754;2023-02-10T10:40:52;5.60;99.90
24772;DHT22;12870;52.274;9.754;2023-02-10T10:43:29;5.70;99.90
24772;DHT22;12870;52.274;9.754;2023-02-10T10:46:21;5.70;99.90
24772;DHT22;12870;52.274;9.754;2023-02-10T10:48:49;5.80;99.90
24772;DHT22;12870;52.274;9.754;2023-02-10T10:51:15;6.00;99.90
24772;DHT22;12870;52.274;9.754;2023-02-10T10:56:35;6.80;99.90
24772;DHT22;12870;52.274;9.754;2023-02-10T11:01:53;7.10;99.90
24772;DHT22;12870;52.274;9.754;2023-02-10T11:04:24;7.60;99.90
24772;DHT22;12870;52.274;9.754;2023-02-10T11:06:53;7.70;99.90
24772;DHT22;12870;52.274;9.754;2023-02-10T11:11:49;7.80;99.90
24772;DHT22;12870;52.274;9.754;2023-02-10T11:14:24;7.30;99.90
24772;DHT22;12870;52.274;9.754;2023-02-10T11:16:53;7.10;99.90
24772;DHT22;12870;52.274;9.754;2023-02-10T11:19:25;7.50;99.90
24772;DHT22;12870;52.274;9.754;2023-02-10T11:21:52;7.60;99.90
24772;DHT22;12870;52.274;9.754;2023-02-10T11:24:22;7.60;99.90
24772;DHT22;12870;52.274;9.754;2023-02-10T11:27:04;7.70;99.90
24772;DHT22;12870;52.274;9.754;2023-02-10T11:29:33;8.00;99.90
24772;DHT22;12870;52.274;9.754;2023-02-10T11:31:59;8.10;99.90
24772;DHT22;12870;52.274;9.754;2023-02-10T11:37:10;8.30;99.90
24772;DHT22;12870;52.274;9.754;2023-02-10T11:39:39;8.60;99.90
24772;DHT22;12870;52.274;9.754;2023-02-10T11:42:22;8.70;99.90
24772;DHT22;12870;52.274;9.754;2023-02-10T11:47:31;8.80;99.90
24772;DHT22;12870;52.274;9.754;2023-02-10T11:49:57;9.00;99.90
24772;DHT22;12870;52.274;9.754;2023-02-10T11:52:27;8.70;99.90
24772;DHT22;12870;52.274;9.754;2023-02-10T11:54:54;8.90;99.90
24772;DHT22;12870;52.274;9.754;2023-02-10T12:00:32;9.00;99.90
24772;DHT22;12870;52.274;9.754;2023-02-10T12:11:53;9.80;99.90
24772;DHT22;12870;52.274;9.754;2023-02-10T12:25:26;10.80;99.90
24772;DHT22;12870;52.274;9.754;2023-02-10T12:28:19;10.40;99.90
24772;DHT22;12870;52.274;9.754;2023-02-10T12:31:28;10.10;99.90
24772;DHT22;12870;52.274;9.754;2023-02-10T12:54:13;10.30;99.90
24772;DHT22;12870;52.274;9.754;2023-02-10T12:56:41;10.90;99.90
24772;DHT22;12870;52.274;9.754;2023-02-10T12:59:23;10.80;99.90
24772;DHT22;12870;52.274;9.754;2023-02-10T13:02:19;11.20;99.90
24772;DHT22;12870;52.274;9.754;2023-02-10T13:04:54;11.60;99.90
24772;DHT22;12870;52.274;9.754;2023-02-10T13:07:49;10.90;99.90
24772;DHT22;12870;52.274;9.754;2023-02-10T13:12:47;9.40;99.90
24772;DHT22;12870;52.274;9.754;2023-02-10T13:17:47;8.30;99.90
24772;DHT22;12870;52.274;9.754;2023-02-10T13:23:01;8.00;99.90
24772;DHT22;12870;52.274;9.754;2023-02-10T13:25:55;7.90;99.90
24772;DHT22;12870;52.274;9.754;2023-02-10T13:28:48;8.00;99.90
24772;DHT22;12870;52.274;9.754;2023-02-10T13:34:24;8.30;99.90
24772;DHT22;12870;52.274;9.754;2023-02-10T13:37:12;8.40;99.90
24772;DHT22;12870;52.274;9.754;2023-02-10T13:39:51;8.40;99.90
24772;DHT22;12870;52.274;9.754;2023-02-10T13:42:28;8.20;99.90
24772;DHT22;12870;52.274;9.754;2023-02-10T13:45:11;8.30;99.90
24772;DHT22;12870;52.274;9.754;2023-02-10T13:52:50;8.40;99.90
24772;DHT22;12870;52.274;9.754;2023-02-10T14:00:51;8.30;99.90
24772;DHT22;12870;52.274;9.754;2023-02-10T14:06:06;8.10;99.90
24772;DHT22;12870;52.274;9.754;2023-02-10T14:08:35;8.10;99.90
24772;DHT22;12870;52.274;9.754;2023-02-10T14:13:44;8.10;99.90
24772;DHT22;12870;52.274;9.754;2023-02-10T14:18:40;8.20;99.90
24772;DHT22;12870;52.274;9.754;2023-02-10T14:21:15;8.10;99.90
24772;DHT22;12870;52.274;9.754;2023-02-10T14:23:51;8.00;99.90
24772;DHT22;12870;52.274;9.754;2023-02-10T14:26:21;8.00;99.90
24772;DHT22;12870;52.274;9.754;2023-02-10T14:28:53;7.80;99.90
24772;DHT22;12870;52.274;9.754;2023-02-10T14:31:23;7.50;99.90
24772;DHT22;12870;52.274;9.754;2023-02-10T14:33:54;7.70;99.90
24772;DHT22;12870;52.274;9.754;2023-02-10T14:36:20;7.90;99.90
24772;DHT22;12870;52.274;9.754;2023-02-10T14:38:54;8.20;99.90
24772;DHT22;12870;52.274;9.754;2023-02-10T14:41:21;8.20;99.90
24772;DHT22;12870;52.274;9.754;2023-02-10T14:43:49;7.90;99.90
24772;DHT22;12870;52.274;9.754;2023-02-10T14:46:31;7.90;99.90
24772;DHT22;12870;52.274;9.754;2023-02-10T14:48:58;8.30;99.90
24772;DHT22;12870;52.274;9.754;2023-02-10T14:51:26;8.50;99.90
24772;DHT22;12870;52.274;9.754;2023-02-10T14:53:53;8.50;99.90
24772;DHT22;12870;52.274;9.754;2023-02-10T14:56:23;8.80;99.90
24772;DHT22;12870;52.274;9.754;2023-02-10T14:58:49;9.10;99.90
24772;DHT22;12870;52.274;9.754;2023-02-10T15:01:33;9.30;99.90
24772;DHT22;12870;52.274;9.754;2023-02-10T15:04:00;9.50;99.90
24772;DHT22;12870;52.274;9.754;2023-02-10T15:06:28;9.60;99.90
24772;DHT22;12870;52.274;9.754;2023-02-10T15:11:36;9.50;99.90
24772;DHT22;12870;52.274;9.754;2023-02-10T15:14:39;9.50;99.90
24772;DHT22;12870;52.274;9.754;2023-02-10T15:17:10;9.10;99.90
24772;DHT22;12870;52.274;9.754;2023-02-10T15:19:54;8.40;99.90
24772;DHT22;12870;52.274;9.754;2023-02-10T15:25:57;7.70;99.90
24772;DHT22;12870;52.274;9.754;2023-02-10T15:30:54;7.30;99.90
24772;DHT22;12870;52.274;9.754;2023-02-10T15:33:26;7.20;99.90
24772;DHT22;12870;52.274;9.754;2023-02-10T15:39:01;7.00;99.90
24772;DHT22;12870;52.274;9.754;2023-02-10T15:41:34;6.90;99.90
24772;DHT22;12870;52.274;9.754;2023-02-10T15:44:02;6.70;99.90
24772;DHT22;12870;52.274;9.754;2023-02-10T15:46:29;6.70;99.90
24772;DHT22;12870;52.274;9.754;2023-02-10T15:49:12;6.60;99.90
24772;DHT22;12870;52.274;9.754;2023-02-10T15:51:53;6.50;99.90
24772;DHT22;12870;52.274;9.754;2023-02-10T15:54:21;6.50;99.90
24772;DHT22;12870;52.274;9.754;2023-02-10T15:57:01;6.50;99.90
24772;DHT22;12870;52.274;9.754;2023-02-10T15:59:28;6.40;99.90
24772;DHT22;12870;52.274;9.754;2023-02-10T16:01:55;6.30;99.90
24772;DHT22;12870;52.274;9.754;2023-02-10T16:04:21;6.20;99.90
24772;DHT22;12870;52.274;9.754;2023-02-10T16:06:47;6.20;99.90
24772;DHT22;12870;52.274;9.754;2023-02-10T16:09:12;6.00;99.90
24772;DHT22;12870;52.274;9.754;2023-02-10T16:11:38;6.00;99.90
24772;DHT22;12870;52.274;9.754;2023-02-10T16:14:04;5.90;99.90
24772;DHT22;12870;52.274;9.754;2023-02-10T16:16:29;5.90;99.90
24772;DHT22;12870;52.274;9.754;2023-02-10T16:18:56;5.80;99.90
24772;DHT22;12870;52.274;9.754;2023-02-10T16:21:21;5.80;99.90
24772;DHT22;12870;52.274;9.754;2023-02-10T16:23:47;5.80;99.90
24772;DHT22;12870;52.274;9.754;2023-02-10T16:26:20;5.70;99.90
24772;DHT22;12870;52.274;9.754;2023-02-10T16:28:47;5.60;99.90
24772;DHT22;12870;52.274;9.754;2023-02-10T16:31:13;5.60;99.90
24772;DHT22;12870;52.274;9.754;2023-02-10T16:33:39;5.50;99.90
24772;DHT22;12870;52.274;9.754;2023-02-10T16:36:08;5.40;99.90
24772;DHT22;12870;52.274;9.754;2023-02-10T16:38:33;5.40;99.90
24772;DHT22;12870;52.274;9.754;2023-02-10T16:41:00;5.40;99.90
24772;DHT22;12870;52.274;9.754;2023-02-10T16:43:26;5.40;99.90
24772;DHT22;12870;52.274;9.754;2023-02-10T16:45:51;5.40;99.90
24772;DHT22;12870;52.274;9.754;2023-02-10T16:48:17;5.40;99.90
24772;DHT22;12870;52.274;9.754;2023-02-10T16:50:44;5.40;99.90
24772;DHT22;12870;52.274;9.754;2023-02-10T16:53:11;5.40;99.90
24772;DHT22;12870;52.274;9.754;2023-02-10T16:55:39;5.40;99.90
24772;DHT22;12870;52.274;9.754;2023-02-10T16:58:06;5.40;99.90
24772;DHT22;12870;52.274;9.754;2023-02-10T17:00:32;5.40;99.90
24772;DHT22;12870;52.274;9.754;2023-02-10T17:02:58;5.40;99.90
24772;DHT22;12870;52.274;9.754;2023-02-10T17:05:25;5.30;99.90
24772;DHT22;12870;52.274;9.754;2023-02-10T17:07:51;5.30;99.90
24772;DHT22;12870;52.274;9.754;2023-02-10T17:10:28;5.20;99.90
24772;DHT22;12870;52.274;9.754;2023-02-10T17:12:55;5.20;99.90
24772;DHT22;12870;52.274;9.754;2023-02-10T17:15:21;5.20;99.90
24772;DHT22;12870;52.274;9.754;2023-02-10T17:17:47;5.10;99.90
24772;DHT22;12870;52.274;9.754;2023-02-10T17:20:22;5.10;99.90
24772;DHT22;12870;52.274;9.754;2023-02-10T17:22:48;5.00;99.90
24772;DHT22;12870;52.274;9.754;2023-02-10T17:25:14;5.00;99.90
24772;DHT22;12870;52.274;9.754;2023-02-10T17:27:40;5.00;99.90
24772;DHT22;12870;52.274;9.754;2023-02-10T17:30:06;4.90;99.90
24772;DHT22;12870;52.274;9.754;2023-02-10T17:32:32;4.90;99.90
24772;DHT22;12870;52.274;9.754;2023-02-10T17:34:58;4.90;99.90
24772;DHT22;12870;52.274;9.754;2023-02-10T17:37:24;4.90;99.90
24772;DHT22;12870;52.274;9.754;2023-02-10T17:39:49;4.90;99.90
24772;DHT22;12870;52.274;9.754;2023-02-10T17:42:15;4.90;99.90
24772;DHT22;12870;52.274;9.754;2023-02-10T17:44:44;4.90;99.90
24772;DHT22;12870;52.274;9.754;2023-02-10T17:47:10;4.90;99.90
24772;DHT22;12870;52.274;9.754;2023-02-10T17:49:36;4.80;99.90
24772;DHT22;12870;52.274;9.754;2023-02-10T17:52:01;4.90;99.90
24772;DHT22;12870;52.274;9.754;2023-02-10T17:54:28;4.80;99.90
24772;DHT22;12870;52.274;9.754;2023-02-10T17:56:56;4.80;99.90
24772;DHT22;12870;52.274;9.754;2023-02-10T17:59:21;4.70;99.90
24772;DHT22;12870;52.274;9.754;2023-02-10T18:01:47;4.70;99.90
24772;DHT22;12870;52.274;9.754;2023-02-10T18:04:15;4.70;99.90
24772;DHT22;12870;52.274;9.754;2023-02-10T18:06:42;4.70;99.90
24772;DHT22;12870;52.274;9.754;2023-02-10T18:09:08;4.70;99.90
24772;DHT22;12870;52.274;9.754;2023-02-10T18:11:34;4.70;99.90
24772;DHT22;12870;52.274;9.754;2023-02-10T18:14:00;4.70;99.90
24772;DHT22;12870;52.274;9.754;2023-02-10T18:16:26;4.70;99.90
24772;DHT22;12870;52.274;9.754;2023-02-10T18:18:52;4.70;99.90
24772;DHT22;12870;52.274;9.754;2023-02-10T18:21:21;4.70;99.90